sensor_id;sensor_type;location;lat;lon;timestamp;temperature;humidity
45012;DHT22;63444;48.148;11.542;2023-07-24T00:00:11;23.40;87.90
45012;DHT22;63444;48.148;11.542;2023-07-24T00:02:36;23.40;87.80
45012;DHT22;63444;48.148;11.542;2023-07-24T00:05:02;23.40;88.00
45012;DHT22;63444;48.148;11.542;2023-07-24T00:07:28;23.40;88.00
45012;DHT22;63444;48.148;11.542;2023-07-24T00:09:53;23.30;88.10
45012;DHT22;63444;48.148;11.542;2023-07-24T00:12:20;23.30;88.20
45012;DHT22;63444;48.148;11.542;2023-07-24T00:14:46;23.20;88.20
45012;DHT22;63444;48.148;11.542;2023-07-24T00:17:11;23.20;88.20
45012;DHT22;63444;48.148;11.542;2023-07-24T00:19:37;23.20;88.40
45012;DHT22;63444;48.148;11.542;2023-07-24T00:22:02;23.20;88.60
45012;DHT22;63444;48.148;11.542;2023-07-24T00:24:30;23.10;88.60
45012;DHT22;63444;48.148;11.542;2023-07-24T00:26:56;23.10;88.90
45012;DHT22;63444;48.148;11.542;2023-07-24T00:29:22;23.00;88.80
45012;DHT22;63444;48.148;11.542;2023-07-24T00:31:47;23.00;88.80
45012;DHT22;63444;48.148;11.542;2023-07-24T00:34:13;23.00;88.90
45012;DHT22;63444;48.148;11.542;2023-07-24T00:36:39;22.90;88.90
45012;DHT22;63444;48.148;11.542;2023-07-24T00:39:04;22.90;88.80
45012;DHT22;63444;48.148;11.542;2023-07-24T00:41:30;22.90;88.90
45012;DHT22;63444;48.148;11.542;2023-07-24T00:43:55;22.90;88.90
45012;DHT22;63444;48.148;11.542;2023-07-24T00:46:21;22.90;88.90
45012;DHT22;63444;48.148;11.542;2023-07-24T00:48:47;22.90;89.00
45012;DHT22;63444;48.148;11.542;2023-07-24T00:51:13;22.90;89.00
45012;DHT22;63444;48.148;11.542;2023-07-24T00:53:39;22.90;89.20
45012;DHT22;63444;48.148;11.542;2023-07-24T00:56:05;22.80;89.20
45012;DHT22;63444;48.148;11.542;2023-07-24T00:58:31;22.80;89.30
45012;DHT22;63444;48.148;11.542;2023-07-24T01:00:56;22.80;89.30
45012;DHT22;63444;48.148;11.542;2023-07-24T01:03:30;22.80;89.40
45012;DHT22;63444;48.148;11.542;2023-07-24T01:05:57;22.80;89.50
45012;DHT22;63444;48.148;11.542;2023-07-24T01:08:23;22.70;89.50
45012;DHT22;63444;48.148;11.542;2023-07-24T01:10:49;22.70;89.60
45012;DHT22;63444;48.148;11.542;2023-07-24T01:13:17;22.70;89.80
45012;DHT22;63444;48.148;11.542;2023-07-24T01:15:50;22.70;90.30
45012;DHT22;63444;48.148;11.542;2023-07-24T01:18:17;22.60;90.00
45012;DHT22;63444;48.148;11.542;2023-07-24T01:20:51;22.50;90.10
45012;DHT22;63444;48.148;11.542;2023-07-24T01:23:50;22.50;90.10
45012;DHT22;63444;48.148;11.542;2023-07-24T01:26:19;22.50;90.10
45012;DHT22;63444;48.148;11.542;2023-07-24T01:28:46;22.50;90.20
45012;DHT22;63444;48.148;11.542;2023-07-24T01:31:11;22.50;90.30
45012;DHT22;63444;48.148;11.542;2023-07-24T01:33:37;22.50;90.30
45012;DHT22;63444;48.148;11.542;2023-07-24T01:36:04;22.40;90.30
45012;DHT22;63444;48.148;11.542;2023-07-24T01:38:34;22.40;90.30
45012;DHT22;63444;48.148;11.542;2023-07-24T01:41:01;22.40;90.30
45012;DHT22;63444;48.148;11.542;2023-07-24T01:43:28;22.40;90.30
45012;DHT22;63444;48.148;11.542;2023-07-24T01:45:54;22.40;90.40
45012;DHT22;63444;48.148;11.542;2023-07-24T01:48:20;22.40;90.40
45012;DHT22;63444;48.148;11.542;2023-07-24T01:50:46;22.40;90.40
45012;DHT22;63444;48.148;11.542;2023-07-24T01:53:11;22.40;90.40
45012;DHT22;63444;48.148;11.542;2023-07-24T01:55:37;22.40;90.50
45012;DHT22;63444;48.148;11.542;2023-07-24T01:58:02;22.40;90.60
45012;DHT22;63444;48.148;11.542;2023-07-24T02:00:28;22.40;90.70
45012;DHT22;63444;48.148;11.542;2023-07-24T02:02:54;22.40;90.80
45012;DHT22;63444;48.148;11.542;2023-07-24T02:05:19;22.40;90.80
45012;DHT22;63444;48.148;11.542;2023-07-24T02:07:45;22.40;91.00
45012;DHT22;63444;48.148;11.542;2023-07-24T02:10:10;22.40;91.00
45012;DHT22;63444;48.148;11.542;2023-07-24T02:12:36;22.30;91.10
45012;DHT22;63444;48.148;11.542;2023-07-24T02:15:02;22.30;91.20
45012;DHT22;63444;48.148;11.542;2023-07-24T02:17:27;22.30;91.30
45012;DHT22;63444;48.148;11.542;2023-07-24T02:19:53;22.30;91.40
45012;DHT22;63444;48.148;11.542;2023-07-24T02:22:19;22.30;91.50
45012;DHT22;63444;48.148;11.542;2023-07-24T02:24:44;22.30;91.50
45012;DHT22;63444;48.148;11.542;2023-07-24T02:27:13;22.30;91.70
45012;DHT22;63444;48.148;11.542;2023-07-24T02:29:41;22.30;91.60
45012;DHT22;63444;48.148;11.542;2023-07-24T02:32:07;22.30;91.70
45012;DHT22;63444;48.148;11.542;2023-07-24T02:34:32;22.30;92.00
45012;DHT22;63444;48.148;11.542;2023-07-24T02:36:58;22.10;92.30
45012;DHT22;63444;48.148;11.542;2023-07-24T02:39:24;22.00;92.50
45012;DHT22;63444;48.148;11.542;2023-07-24T02:41:49;21.90;92.80
45012;DHT22;63444;48.148;11.542;2023-07-24T02:44:15;21.90;92.90
45012;DHT22;63444;48.148;11.542;2023-07-24T02:46:41;21.80;93.00
45012;DHT22;63444;48.148;11.542;2023-07-24T02:49:07;21.80;93.10
45012;DHT22;63444;48.148;11.542;2023-07-24T02:51:33;21.90;93.20
45012;DHT22;63444;48.148;11.542;2023-07-24T02:53:58;21.90;93.20
45012;DHT22;63444;48.148;11.542;2023-07-24T02:56:24;21.90;93.20
45012;DHT22;63444;48.148;11.542;2023-07-24T02:58:49;21.90;93.20
45012;DHT22;63444;48.148;11.542;2023-07-24T03:01:15;21.90;93.20
45012;DHT22;63444;48.148;11.542;2023-07-24T03:03:41;21.90;93.10
45012;DHT22;63444;48.148;11.542;2023-07-24T03:06:07;22.00;93.30
45012;DHT22;63444;48.148;11.542;2023-07-24T03:08:33;22.00;93.50
45012;DHT22;63444;48.148;11.542;2023-07-24T03:10:59;22.00;93.60
45012;DHT22;63444;48.148;11.542;2023-07-24T03:13:25;22.10;95.00
45012;DHT22;63444;48.148;11.542;2023-07-24T03:15:53;22.10;96.40
45012;DHT22;63444;48.148;11.542;2023-07-24T03:18:19;22.00;96.70
45012;DHT22;63444;48.148;11.542;2023-07-24T03:20:45;22.00;97.50
45012;DHT22;63444;48.148;11.542;2023-07-24T03:23:10;21.90;98.30
45012;DHT22;63444;48.148;11.542;2023-07-24T03:25:36;21.80;99.80
45012;DHT22;63444;48.148;11.542;2023-07-24T03:28:02;21.60;99.90
45012;DHT22;63444;48.148;11.542;2023-07-24T03:30:28;21.50;99.90
45012;DHT22;63444;48.148;11.542;2023-07-24T03:32:53;21.40;99.90
45012;DHT22;63444;48.148;11.542;2023-07-24T03:35:19;21.30;99.90
45012;DHT22;63444;48.148;11.542;2023-07-24T03:37:44;21.20;99.90
45012;DHT22;63444;48.148;11.542;2023-07-24T03:40:10;21.00;99.90
45012;DHT22;63444;48.148;11.542;2023-07-24T03:42:36;20.90;99.90
45012;DHT22;63444;48.148;11.542;2023-07-24T03:45:02;20.90;99.90
45012;DHT22;63444;48.148;11.542;2023-07-24T03:47:27;20.80;99.90
45012;DHT22;63444;48.148;11.542;2023-07-24T03:49:53;20.70;99.90
45012;DHT22;63444;48.148;11.542;2023-07-24T03:52:18;20.70;99.90
45012;DHT22;63444;48.148;11.542;2023-07-24T03:54:44;20.60;99.90
45012;DHT22;63444;48.148;11.542;2023-07-24T03:57:10;20.60;99.90
45012;DHT22;63444;48.148;11.542;2023-07-24T03:59:36;20.60;99.90
45012;DHT22;63444;48.148;11.542;2023-07-24T04:02:01;20.60;99.90
45012;DHT22;63444;48.148;11.542;2023-07-24T04:04:27;20.60;99.90
45012;DHT22;63444;48.148;11.542;2023-07-24T04:06:53;20.70;99.90
45012;DHT22;63444;48.148;11.542;2023-07-24T04:09:18;20.70;99.90
45012;DHT22;63444;48.148;11.542;2023-07-24T04:11:44;20.80;99.90
45012;DHT22;63444;48.148;11.542;2023-07-24T04:14:10;20.80;99.90
45012;DHT22;63444;48.148;11.542;2023-07-24T04:16:36;20.90;99.90
45012;DHT22;63444;48.148;11.542;2023-07-24T04:19:02;20.90;99.90
45012;DHT22;63444;48.148;11.542;2023-07-24T04:21:27;20.90;99.90
45012;DHT22;63444;48.148;11.542;2023-07-24T04:23:53;20.90;99.90
45012;DHT22;63444;48.148;11.542;2023-07-24T04:26:18;20.90;99.90
45012;DHT22;63444;48.148;11.542;2023-07-24T04:28:44;20.90;99.90
45012;DHT22;63444;48.148;11.542;2023-07-24T04:31:09;21.00;99.90
45012;DHT22;63444;48.148;11.542;2023-07-24T04:33:35;21.00;99.90
45012;DHT22;63444;48.148;11.542;2023-07-24T04:36:01;21.10;99.90
45012;DHT22;63444;48.148;11.542;2023-07-24T04:38:26;21.00;99.90
45012;DHT22;63444;48.148;11.542;2023-07-24T04:40:52;21.10;99.90
45012;DHT22;63444;48.148;11.542;2023-07-24T04:43:17;21.10;99.90
45012;DHT22;63444;48.148;11.542;2023-07-24T04:45:43;21.10;99.90
45012;DHT22;63444;48.148;11.542;2023-07-24T04:48:09;21.10;99.90
45012;DHT22;63444;48.148;11.542;2023-07-24T04:50:34;21.10;99.90
45012;DHT22;63444;48.148;11.542;2023-07-24T04:53:00;21.00;99.90
45012;DHT22;63444;48.148;11.542;2023-07-24T04:55:25;20.90;99.90
45012;DHT22;63444;48.148;11.542;2023-07-24T04:57:51;21.00;99.90
45012;DHT22;63444;48.148;11.542;2023-07-24T05:00:16;21.00;99.90
45012;DHT22;63444;48.148;11.542;2023-07-24T05:02:42;21.00;99.90
45012;DHT22;63444;48.148;11.542;2023-07-24T05:05:08;21.00;99.90
45012;DHT22;63444;48.148;11.542;2023-07-24T05:07:34;21.10;99.90
45012;DHT22;63444;48.148;11.542;2023-07-24T05:09:59;21.10;99.90
45012;DHT22;63444;48.148;11.542;2023-07-24T05:12:25;21.10;99.90
45012;DHT22;63444;48.148;11.542;2023-07-24T05:14:51;21.10;99.90
45012;DHT22;63444;48.148;11.542;2023-07-24T05:17:17;21.00;99.90
45012;DHT22;63444;48.148;11.542;2023-07-24T05:19:42;20.90;99.90
45012;DHT22;63444;48.148;11.542;2023-07-24T05:22:08;21.00;99.90
45012;DHT22;63444;48.148;11.542;2023-07-24T05:24:36;21.00;99.90
45012;DHT22;63444;48.148;11.542;2023-07-24T05:27:02;21.10;99.90
45012;DHT22;63444;48.148;11.542;2023-07-24T05:29:28;21.10;99.90
45012;DHT22;63444;48.148;11.542;2023-07-24T05:31:53;21.10;99.90
45012;DHT22;63444;48.148;11.542;2023-07-24T05:34:19;21.20;99.90
45012;DHT22;63444;48.148;11.542;2023-07-24T05:36:44;21.20;99.90
45012;DHT22;63444;48.148;11.542;2023-07-24T05:39:10;21.20;99.90
45012;DHT22;63444;48.148;11.542;2023-07-24T05:41:36;21.30;99.90
45012;DHT22;63444;48.148;11.542;2023-07-24T05:44:01;21.30;99.90
45012;DHT22;63444;48.148;11.542;2023-07-24T05:46:27;21.40;99.90
45012;DHT22;63444;48.148;11.542;2023-07-24T05:48:52;21.50;99.90
45012;DHT22;63444;48.148;11.542;2023-07-24T05:51:18;21.60;99.90
45012;DHT22;63444;48.148;11.542;2023-07-24T05:53:43;21.80;99.90
45012;DHT22;63444;48.148;11.542;2023-07-24T05:56:09;21.90;99.90
45012;DHT22;63444;48.148;11.542;2023-07-24T05:58:34;22.00;99.90
45012;DHT22;63444;48.148;11.542;2023-07-24T06:01:00;22.40;99.90
45012;DHT22;63444;48.148;11.542;2023-07-24T06:03:26;22.80;99.90
45012;DHT22;63444;48.148;11.542;2023-07-24T06:05:54;23.20;99.90
45012;DHT22;63444;48.148;11.542;2023-07-24T06:08:20;23.70;99.90
45012;DHT22;63444;48.148;11.542;2023-07-24T06:10:47;24.20;99.90
45012;DHT22;63444;48.148;11.542;2023-07-24T06:13:14;24.60;99.90
45012;DHT22;63444;48.148;11.542;2023-07-24T06:15:40;24.90;99.90
45012;DHT22;63444;48.148;11.542;2023-07-24T06:18:06;25.10;99.40
45012;DHT22;63444;48.148;11.542;2023-07-24T06:20:31;25.10;99.00
45012;DHT22;63444;48.148;11.542;2023-07-24T06:22:57;25.10;98.50
45012;DHT22;63444;48.148;11.542;2023-07-24T06:25:22;25.20;98.40
45012;DHT22;63444;48.148;11.542;2023-07-24T06:27:48;25.50;97.80
45012;DHT22;63444;48.148;11.542;2023-07-24T06:30:13;25.70;97.00
45012;DHT22;63444;48.148;11.542;2023-07-24T06:32:39;26.00;96.60
45012;DHT22;63444;48.148;11.542;2023-07-24T06:35:05;26.30;96.10
45012;DHT22;63444;48.148;11.542;2023-07-24T06:37:31;26.70;95.20
45012;DHT22;63444;48.148;11.542;2023-07-24T06:39:56;27.20;94.40
45012;DHT22;63444;48.148;11.542;2023-07-24T06:42:22;27.60;93.30
45012;DHT22;63444;48.148;11.542;2023-07-24T06:44:47;28.00;92.60
45012;DHT22;63444;48.148;11.542;2023-07-24T06:47:13;28.40;91.20
45012;DHT22;63444;48.148;11.542;2023-07-24T06:49:38;28.70;90.70
45012;DHT22;63444;48.148;11.542;2023-07-24T06:52:04;29.00;89.70
45012;DHT22;63444;48.148;11.542;2023-07-24T06:54:30;29.40;89.00
45012;DHT22;63444;48.148;11.542;2023-07-24T06:56:55;29.80;88.10
45012;DHT22;63444;48.148;11.542;2023-07-24T06:59:21;30.20;85.10
45012;DHT22;63444;48.148;11.542;2023-07-24T07:01:47;30.50;84.30
45012;DHT22;63444;48.148;11.542;2023-07-24T07:04:12;30.80;83.20
45012;DHT22;63444;48.148;11.542;2023-07-24T07:06:38;31.10;81.80
45012;DHT22;63444;48.148;11.542;2023-07-24T07:09:03;31.40;80.70
45012;DHT22;63444;48.148;11.542;2023-07-24T07:11:30;31.70;79.60
45012;DHT22;63444;48.148;11.542;2023-07-24T07:13:55;31.90;79.20
45012;DHT22;63444;48.148;11.542;2023-07-24T07:16:21;32.00;78.80
45012;DHT22;63444;48.148;11.542;2023-07-24T07:18:46;32.10;78.00
45012;DHT22;63444;48.148;11.542;2023-07-24T07:21:12;32.00;77.60
45012;DHT22;63444;48.148;11.542;2023-07-24T07:23:38;31.80;77.60
45012;DHT22;63444;48.148;11.542;2023-07-24T07:26:03;31.40;78.30
45012;DHT22;63444;48.148;11.542;2023-07-24T07:28:29;31.10;78.60
45012;DHT22;63444;48.148;11.542;2023-07-24T07:30:54;30.80;80.10
45012;DHT22;63444;48.148;11.542;2023-07-24T07:33:20;30.30;80.70
45012;DHT22;63444;48.148;11.542;2023-07-24T07:35:49;29.50;81.20
45012;DHT22;63444;48.148;11.542;2023-07-24T07:38:15;28.60;82.70
45012;DHT22;63444;48.148;11.542;2023-07-24T07:40:41;27.60;88.80
45012;DHT22;63444;48.148;11.542;2023-07-24T07:43:06;27.20;91.00
45012;DHT22;63444;48.148;11.542;2023-07-24T07:45:32;27.00;91.80
45012;DHT22;63444;48.148;11.542;2023-07-24T07:47:58;26.70;92.90
45012;DHT22;63444;48.148;11.542;2023-07-24T07:50:23;26.30;94.30
45012;DHT22;63444;48.148;11.542;2023-07-24T07:52:52;25.60;96.10
45012;DHT22;63444;48.148;11.542;2023-07-24T07:55:18;25.40;96.50
45012;DHT22;63444;48.148;11.542;2023-07-24T07:57:44;25.10;97.10
45012;DHT22;63444;48.148;11.542;2023-07-24T08:00:10;25.00;97.60
45012;DHT22;63444;48.148;11.542;2023-07-24T08:02:36;24.80;98.50
45012;DHT22;63444;48.148;11.542;2023-07-24T08:05:07;24.60;99.20
45012;DHT22;63444;48.148;11.542;2023-07-24T08:07:32;24.50;99.90
45012;DHT22;63444;48.148;11.542;2023-07-24T08:09:58;24.30;99.90
45012;DHT22;63444;48.148;11.542;2023-07-24T08:12:24;24.30;99.90
45012;DHT22;63444;48.148;11.542;2023-07-24T08:14:50;24.20;99.90
45012;DHT22;63444;48.148;11.542;2023-07-24T08:17:15;24.20;99.90
45012;DHT22;63444;48.148;11.542;2023-07-24T08:19:41;24.10;99.90
45012;DHT22;63444;48.148;11.542;2023-07-24T08:22:06;24.10;99.90
45012;DHT22;63444;48.148;11.542;2023-07-24T08:24:35;23.90;99.90
45012;DHT22;63444;48.148;11.542;2023-07-24T08:27:01;23.80;99.90
45012;DHT22;63444;48.148;11.542;2023-07-24T08:29:27;23.80;99.90
45012;DHT22;63444;48.148;11.542;2023-07-24T08:31:52;23.80;99.90
45012;DHT22;63444;48.148;11.542;2023-07-24T08:34:18;23.70;99.90
45012;DHT22;63444;48.148;11.542;2023-07-24T08:36:44;23.70;99.90
45012;DHT22;63444;48.148;11.542;2023-07-24T08:39:09;23.70;99.90
45012;DHT22;63444;48.148;11.542;2023-07-24T08:41:36;23.60;99.90
45012;DHT22;63444;48.148;11.542;2023-07-24T08:44:05;23.60;99.90
45012;DHT22;63444;48.148;11.542;2023-07-24T08:46:31;23.70;99.90
45012;DHT22;63444;48.148;11.542;2023-07-24T08:48:57;23.70;99.90
45012;DHT22;63444;48.148;11.542;2023-07-24T08:51:23;23.60;99.90
45012;DHT22;63444;48.148;11.542;2023-07-24T08:53:49;23.50;99.90
45012;DHT22;63444;48.148;11.542;2023-07-24T08:56:15;23.50;99.90
45012;DHT22;63444;48.148;11.542;2023-07-24T08:58:41;23.50;99.90
45012;DHT22;63444;48.148;11.542;2023-07-24T09:01:08;23.50;99.90
45012;DHT22;63444;48.148;11.542;2023-07-24T09:03:34;23.50;99.90
45012;DHT22;63444;48.148;11.542;2023-07-24T09:06:00;23.50;99.90
45012;DHT22;63444;48.148;11.542;2023-07-24T09:11:03;23.50;99.90
45012;DHT22;63444;48.148;11.542;2023-07-24T09:13:29;23.40;99.90
45012;DHT22;63444;48.148;11.542;2023-07-24T09:15:55;23.40;99.90
45012;DHT22;63444;48.148;11.542;2023-07-24T09:18:21;23.40;99.90
45012;DHT22;63444;48.148;11.542;2023-07-24T09:20:46;23.40;99.90
45012;DHT22;63444;48.148;11.542;2023-07-24T09:23:13;23.40;99.90
45012;DHT22;63444;48.148;11.542;2023-07-24T09:25:41;23.40;99.90
45012;DHT22;63444;48.148;11.542;2023-07-24T09:28:17;23.50;99.90
45012;DHT22;63444;48.148;11.542;2023-07-24T09:30:57;23.50;99.90
45012;DHT22;63444;48.148;11.542;2023-07-24T09:33:33;23.50;99.90
45012;DHT22;63444;48.148;11.542;2023-07-24T09:36:00;23.50;99.90
45012;DHT22;63444;48.148;11.542;2023-07-24T09:38:26;23.70;99.90
45012;DHT22;63444;48.148;11.542;2023-07-24T09:40:53;23.70;99.90
45012;DHT22;63444;48.148;11.542;2023-07-24T09:43:22;23.80;99.90
45012;DHT22;63444;48.148;11.542;2023-07-24T09:45:49;23.90;99.90
45012;DHT22;63444;48.148;11.542;2023-07-24T09:48:16;24.10;99.90
45012;DHT22;63444;48.148;11.542;2023-07-24T09:50:45;24.20;99.90
45012;DHT22;63444;48.148;11.542;2023-07-24T09:56:05;24.50;99.70
45012;DHT22;63444;48.148;11.542;2023-07-24T09:58:36;24.60;99.00
45012;DHT22;63444;48.148;11.542;2023-07-24T10:01:03;24.70;98.90
45012;DHT22;63444;48.148;11.542;2023-07-24T10:03:34;24.80;98.50
45012;DHT22;63444;48.148;11.542;2023-07-24T10:06:01;24.90;97.60
45012;DHT22;63444;48.148;11.542;2023-07-24T10:08:27;25.00;96.80
45012;DHT22;63444;48.148;11.542;2023-07-24T10:10:53;25.10;96.60
45012;DHT22;63444;48.148;11.542;2023-07-24T10:13:21;25.20;96.40
45012;DHT22;63444;48.148;11.542;2023-07-24T10:15:48;25.30;95.80
45012;DHT22;63444;48.148;11.542;2023-07-24T10:18:15;25.30;94.00
45012;DHT22;63444;48.148;11.542;2023-07-24T10:20:42;25.40;93.60
45012;DHT22;63444;48.148;11.542;2023-07-24T10:23:09;25.40;93.80
45012;DHT22;63444;48.148;11.542;2023-07-24T10:25:38;25.50;93.90
45012;DHT22;63444;48.148;11.542;2023-07-24T10:28:07;25.50;93.00
45012;DHT22;63444;48.148;11.542;2023-07-24T10:30:36;25.60;92.80
45012;DHT22;63444;48.148;11.542;2023-07-24T10:33:09;25.60;92.60
45012;DHT22;63444;48.148;11.542;2023-07-24T10:35:39;25.70;92.70
45012;DHT22;63444;48.148;11.542;2023-07-24T10:38:05;25.80;93.20
45012;DHT22;63444;48.148;11.542;2023-07-24T10:40:32;25.90;93.10
45012;DHT22;63444;48.148;11.542;2023-07-24T10:42:59;26.00;91.90
45012;DHT22;63444;48.148;11.542;2023-07-24T10:45:25;26.10;91.50
45012;DHT22;63444;48.148;11.542;2023-07-24T10:47:51;26.10;91.20
45012;DHT22;63444;48.148;11.542;2023-07-24T10:50:19;26.10;91.00
45012;DHT22;63444;48.148;11.542;2023-07-24T10:52:44;26.20;91.10
45012;DHT22;63444;48.148;11.542;2023-07-24T10:55:10;26.20;91.00
45012;DHT22;63444;48.148;11.542;2023-07-24T10:57:35;26.30;90.60
45012;DHT22;63444;48.148;11.542;2023-07-24T11:00:01;26.30;90.50
45012;DHT22;63444;48.148;11.542;2023-07-24T11:02:26;26.40;91.00
45012;DHT22;63444;48.148;11.542;2023-07-24T11:04:52;26.40;91.30
45012;DHT22;63444;48.148;11.542;2023-07-24T11:07:18;26.60;91.20
45012;DHT22;63444;48.148;11.542;2023-07-24T11:09:44;26.60;91.30
45012;DHT22;63444;48.148;11.542;2023-07-24T11:12:14;26.80;90.50
45012;DHT22;63444;48.148;11.542;2023-07-24T11:14:50;27.00;90.40
45012;DHT22;63444;48.148;11.542;2023-07-24T11:17:16;27.20;89.20
45012;DHT22;63444;48.148;11.542;2023-07-24T11:19:42;27.20;87.50
45012;DHT22;63444;48.148;11.542;2023-07-24T11:22:07;27.30;88.40
45012;DHT22;63444;48.148;11.542;2023-07-24T11:24:34;27.30;86.70
45012;DHT22;63444;48.148;11.542;2023-07-24T11:27:16;27.40;86.70
45012;DHT22;63444;48.148;11.542;2023-07-24T11:29:49;27.50;85.20
45012;DHT22;63444;48.148;11.542;2023-07-24T11:32:21;27.50;84.40
45012;DHT22;63444;48.148;11.542;2023-07-24T11:34:48;27.60;84.40
45012;DHT22;63444;48.148;11.542;2023-07-24T11:37:14;27.70;85.50
45012;DHT22;63444;48.148;11.542;2023-07-24T11:39:40;27.70;84.10
45012;DHT22;63444;48.148;11.542;2023-07-24T11:42:06;27.80;83.50
45012;DHT22;63444;48.148;11.542;2023-07-24T11:44:32;27.80;83.40
45012;DHT22;63444;48.148;11.542;2023-07-24T11:47:05;27.90;82.30
45012;DHT22;63444;48.148;11.542;2023-07-24T11:49:31;27.90;82.60
45012;DHT22;63444;48.148;11.542;2023-07-24T11:52:04;28.00;83.10
45012;DHT22;63444;48.148;11.542;2023-07-24T11:54:30;28.00;83.80
45012;DHT22;63444;48.148;11.542;2023-07-24T11:56:56;28.10;82.40
45012;DHT22;63444;48.148;11.542;2023-07-24T11:59:22;28.10;82.00
45012;DHT22;63444;48.148;11.542;2023-07-24T12:01:48;28.00;82.10
45012;DHT22;63444;48.148;11.542;2023-07-24T12:04:14;27.90;81.80
45012;DHT22;63444;48.148;11.542;2023-07-24T12:06:41;27.90;82.60
45012;DHT22;63444;48.148;11.542;2023-07-24T12:09:07;27.80;82.30
45012;DHT22;63444;48.148;11.542;2023-07-24T12:11:34;27.70;82.00
45012;DHT22;63444;48.148;11.542;2023-07-24T12:14:04;27.70;81.50
45012;DHT22;63444;48.148;11.542;2023-07-24T12:16:29;27.60;83.10
45012;DHT22;63444;48.148;11.542;2023-07-24T12:18:56;27.50;85.30
45012;DHT22;63444;48.148;11.542;2023-07-24T12:21:21;27.40;88.00
45012;DHT22;63444;48.148;11.542;2023-07-24T12:23:47;27.40;87.70
45012;DHT22;63444;48.148;11.542;2023-07-24T12:26:12;27.20;90.00
45012;DHT22;63444;48.148;11.542;2023-07-24T12:28:38;26.80;90.90
45012;DHT22;63444;48.148;11.542;2023-07-24T12:31:04;26.60;93.00
45012;DHT22;63444;48.148;11.542;2023-07-24T12:33:29;26.40;94.70
45012;DHT22;63444;48.148;11.542;2023-07-24T12:35:55;26.10;96.80
45012;DHT22;63444;48.148;11.542;2023-07-24T12:38:20;25.60;97.10
45012;DHT22;63444;48.148;11.542;2023-07-24T12:40:46;25.10;98.10
45012;DHT22;63444;48.148;11.542;2023-07-24T12:43:12;24.80;99.90
45012;DHT22;63444;48.148;11.542;2023-07-24T12:45:37;24.70;99.90
45012;DHT22;63444;48.148;11.542;2023-07-24T12:48:03;24.70;99.90
45012;DHT22;63444;48.148;11.542;2023-07-24T12:50:29;24.60;99.90
45012;DHT22;63444;48.148;11.542;2023-07-24T12:52:55;24.50;99.90
45012;DHT22;63444;48.148;11.542;2023-07-24T12:55:21;24.40;99.90
45012;DHT22;63444;48.148;11.542;2023-07-24T12:57:47;24.50;99.90
45012;DHT22;63444;48.148;11.542;2023-07-24T13:00:12;24.50;99.90
45012;DHT22;63444;48.148;11.542;2023-07-24T13:02:38;24.50;99.90
45012;DHT22;63444;48.148;11.542;2023-07-24T13:05:04;24.30;99.90
45012;DHT22;63444;48.148;11.542;2023-07-24T13:07:30;24.00;99.90
45012;DHT22;63444;48.148;11.542;2023-07-24T13:09:55;23.80;99.90
45012;DHT22;63444;48.148;11.542;2023-07-24T13:12:21;23.70;99.90
45012;DHT22;63444;48.148;11.542;2023-07-24T13:14:46;23.70;99.90
45012;DHT22;63444;48.148;11.542;2023-07-24T13:17:12;23.50;99.90
45012;DHT22;63444;48.148;11.542;2023-07-24T13:19:37;23.50;99.90
45012;DHT22;63444;48.148;11.542;2023-07-24T13:22:03;23.60;99.90
45012;DHT22;63444;48.148;11.542;2023-07-24T13:24:29;23.40;99.90
45012;DHT22;63444;48.148;11.542;2023-07-24T13:26:55;23.40;99.90
45012;DHT22;63444;48.148;11.542;2023-07-24T13:29:20;23.30;99.90
45012;DHT22;63444;48.148;11.542;2023-07-24T13:31:46;23.30;99.90
45012;DHT22;63444;48.148;11.542;2023-07-24T13:34:11;23.30;99.90
45012;DHT22;63444;48.148;11.542;2023-07-24T13:36:38;23.20;99.90
45012;DHT22;63444;48.148;11.542;2023-07-24T13:39:04;23.20;99.90
45012;DHT22;63444;48.148;11.542;2023-07-24T13:41:30;23.30;99.90
45012;DHT22;63444;48.148;11.542;2023-07-24T13:43:55;23.30;99.90
45012;DHT22;63444;48.148;11.542;2023-07-24T13:46:21;23.30;99.90
45012;DHT22;63444;48.148;11.542;2023-07-24T13:48:46;23.40;99.90
45012;DHT22;63444;48.148;11.542;2023-07-24T13:51:12;23.60;99.90
45012;DHT22;63444;48.148;11.542;2023-07-24T13:53:37;23.70;99.90
45012;DHT22;63444;48.148;11.542;2023-07-24T13:56:03;23.80;99.90
45012;DHT22;63444;48.148;11.542;2023-07-24T13:58:29;23.90;99.90
45012;DHT22;63444;48.148;11.542;2023-07-24T14:00:54;23.90;99.90
45012;DHT22;63444;48.148;11.542;2023-07-24T14:03:20;24.00;99.90
45012;DHT22;63444;48.148;11.542;2023-07-24T14:05:45;24.00;99.90
45012;DHT22;63444;48.148;11.542;2023-07-24T14:08:11;24.00;99.90
45012;DHT22;63444;48.148;11.542;2023-07-24T14:10:37;24.10;99.90
45012;DHT22;63444;48.148;11.542;2023-07-24T14:13:03;24.10;99.90
45012;DHT22;63444;48.148;11.542;2023-07-24T14:15:29;24.20;99.90
45012;DHT22;63444;48.148;11.542;2023-07-24T14:17:55;24.30;99.90
45012;DHT22;63444;48.148;11.542;2023-07-24T14:20:20;24.30;99.90
45012;DHT22;63444;48.148;11.542;2023-07-24T14:22:46;24.40;99.90
45012;DHT22;63444;48.148;11.542;2023-07-24T14:25:12;24.40;99.90
45012;DHT22;63444;48.148;11.542;2023-07-24T14:27:37;24.50;99.90
45012;DHT22;63444;48.148;11.542;2023-07-24T14:30:03;24.60;99.90
45012;DHT22;63444;48.148;11.542;2023-07-24T14:32:29;24.70;99.90
45012;DHT22;63444;48.148;11.542;2023-07-24T14:34:54;24.60;99.90
45012;DHT22;63444;48.148;11.542;2023-07-24T14:37:20;24.60;99.90
45012;DHT22;63444;48.148;11.542;2023-07-24T14:39:46;24.60;99.90
45012;DHT22;63444;48.148;11.542;2023-07-24T14:42:12;24.70;99.90
45012;DHT22;63444;48.148;11.542;2023-07-24T14:44:38;24.60;99.40
45012;DHT22;63444;48.148;11.542;2023-07-24T14:47:04;24.60;99.50
45012;DHT22;63444;48.148;11.542;2023-07-24T14:49:29;24.70;99.30
45012;DHT22;63444;48.148;11.542;2023-07-24T14:51:55;24.70;99.20
45012;DHT22;63444;48.148;11.542;2023-07-24T14:54:21;24.80;99.60
45012;DHT22;63444;48.148;11.542;2023-07-24T14:56:46;24.80;99.90
45012;DHT22;63444;48.148;11.542;2023-07-24T14:59:12;24.80;99.90
45012;DHT22;63444;48.148;11.542;2023-07-24T15:01:37;24.80;99.90
45012;DHT22;63444;48.148;11.542;2023-07-24T15:04:03;24.80;99.90
45012;DHT22;63444;48.148;11.542;2023-07-24T15:06:28;24.80;99.90
45012;DHT22;63444;48.148;11.542;2023-07-24T15:08:54;24.80;99.90
45012;DHT22;63444;48.148;11.542;2023-07-24T15:11:22;24.80;99.90
45012;DHT22;63444;48.148;11.542;2023-07-24T15:13:49;24.80;99.50